createdAt,value
2022-12-05T00:01:44.971Z,3.20
2022-12-05T00:04:14.731Z,3.20
2022-12-05T00:06:44.338Z,3.20
2022-12-05T00:09:13.959Z,3.10
2022-12-05T00:11:45.000Z,3.20
2022-12-05T00:14:13.861Z,3.20
2022-12-05T00:16:43.750Z,3.20
2022-12-05T00:19:15.262Z,3.20
2022-12-05T00:21:44.064Z,3.20
2022-12-05T00:24:15.262Z,3.20
2022-12-05T00:26:43.739Z,3.30
2022-12-05T00:29:12.111Z,3.20
2022-12-05T00:31:40.053Z,3.20
2022-12-05T00:34:08.078Z,3.20
2022-12-05T00:36:36.624Z,3.20
2022-12-05T00:39:09.293Z,3.20
2022-12-05T00:41:38.268Z,3.20
2022-12-05T00:44:06.703Z,3.20
2022-12-05T00:46:36.049Z,3.20
2022-12-05T00:49:06.905Z,3.20
2022-12-05T00:51:41.718Z,3.20
2022-12-05T00:54:13.378Z,3.10
2022-12-05T00:56:42.116Z,3.10
2022-12-05T00:59:18.152Z,3.20
2022-12-05T01:01:48.325Z,3.20
2022-12-05T01:04:23.442Z,3.20
2022-12-05T01:06:55.983Z,3.20
2022-12-05T01:09:24.064Z,3.20
2022-12-05T01:11:53.001Z,3.10
2022-12-05T01:14:23.943Z,3.20
2022-12-05T01:16:54.602Z,3.20
2022-12-05T01:19:26.890Z,3.20
2022-12-05T01:21:55.732Z,3.20
2022-12-05T01:24:25.909Z,3.20
2022-12-05T01:26:54.209Z,3.20
2022-12-05T01:29:24.588Z,3.20
2022-12-05T01:31:53.360Z,3.20
2022-12-05T01:34:22.334Z,3.20
2022-12-05T01:36:50.198Z,3.20
2022-12-05T01:39:18.256Z,3.20
2022-12-05T01:41:49.238Z,3.20
2022-12-05T01:44:17.672Z,3.20
2022-12-05T01:46:48.896Z,3.20
2022-12-05T01:49:36.520Z,3.20
2022-12-05T01:52:26.722Z,3.20
2022-12-05T01:55:00.122Z,3.30
2022-12-05T01:57:28.444Z,3.20
2022-12-05T02:00:05.279Z,3.20
2022-12-05T02:02:43.368Z,3.20
2022-12-05T02:05:23.884Z,3.20
2022-12-05T02:07:52.827Z,3.20
2022-12-05T02:10:21.248Z,3.20
2022-12-05T02:12:51.475Z,3.20
2022-12-05T02:16:00.518Z,3.20
2022-12-05T02:19:06.125Z,3.20
2022-12-05T02:21:41.172Z,3.20
2022-12-05T02:24:20.718Z,3.20
2022-12-05T02:27:15.688Z,3.20
2022-12-05T02:30:09.991Z,3.20
2022-12-05T02:33:19.503Z,3.20
2022-12-05T02:36:15.910Z,3.20
2022-12-05T02:39:24.670Z,3.20
2022-12-05T02:42:01.193Z,3.20
2022-12-05T02:44:47.665Z,3.20
2022-12-05T02:47:22.373Z,3.20
2022-12-05T02:49:52.961Z,3.20
2022-12-05T02:52:22.943Z,3.20
2022-12-05T02:54:53.565Z,3.30
2022-12-05T02:57:24.704Z,3.30
2022-12-05T02:59:52.611Z,3.30
2022-12-05T03:02:34.061Z,3.30
2022-12-05T03:05:54.077Z,3.40
2022-12-05T03:08:29.618Z,3.40
2022-12-05T03:10:59.274Z,3.40
2022-12-05T03:13:35.093Z,3.50
2022-12-05T03:16:29.513Z,3.40
2022-12-05T03:19:03.224Z,3.40
2022-12-05T03:21:35.977Z,3.50
2022-12-05T03:24:11.625Z,3.50
2022-12-05T03:26:48.130Z,3.40
2022-12-05T03:29:30.356Z,3.50
2022-12-05T03:32:28.554Z,3.50
2022-12-05T03:35:23.378Z,3.60
2022-12-05T03:38:03.388Z,3.60
2022-12-05T03:40:46.548Z,3.50
2022-12-05T03:43:36.780Z,3.50
2022-12-05T03:46:31.578Z,3.50
2022-12-05T03:49:26.029Z,3.50
2022-12-05T03:52:20.341Z,3.50
2022-12-05T03:55:09.009Z,3.50
2022-12-05T03:58:15.061Z,3.60
2022-12-05T04:00:50.303Z,3.70
2022-12-05T04:03:26.641Z,3.60
2022-12-05T04:06:01.620Z,3.60
2022-12-05T04:08:47.039Z,3.60
2022-12-05T04:11:23.390Z,3.70
2022-12-05T04:13:56.662Z,3.70
2022-12-05T04:16:50.334Z,3.70
2022-12-05T04:20:37.858Z,3.70
2022-12-05T04:23:07.065Z,3.80
2022-12-05T04:26:04.876Z,3.80
2022-12-05T04:28:36.600Z,3.80
2022-12-05T04:31:26.146Z,3.80
2022-12-05T04:34:07.817Z,3.70
2022-12-05T04:36:47.049Z,3.70
2022-12-05T04:39:35.261Z,3.70
2022-12-05T04:42:09.627Z,3.70
2022-12-05T04:44:44.951Z,3.70
2022-12-05T04:47:15.044Z,3.70
2022-12-05T04:49:46.961Z,3.70
2022-12-05T04:52:19.133Z,3.70
2022-12-05T04:54:52.571Z,3.70
2022-12-05T04:57:45.092Z,3.60
2022-12-05T05:00:13.435Z,3.70
2022-12-05T05:02:51.665Z,3.80
2022-12-05T05:05:20.846Z,3.80
2022-12-05T05:07:54.509Z,3.80
2022-12-05T05:10:55.051Z,3.90
2022-12-05T05:13:22.895Z,3.90
2022-12-05T05:15:50.707Z,3.90
2022-12-05T05:18:18.588Z,3.90
2022-12-05T05:20:46.443Z,3.90
2022-12-05T05:23:14.594Z,3.90
2022-12-05T05:25:42.341Z,3.90
2022-12-05T05:28:10.109Z,4.00
2022-12-05T05:30:37.904Z,4.00
2022-12-05T05:33:05.660Z,3.90
2022-12-05T05:35:37.477Z,3.90
2022-12-05T05:38:05.313Z,3.90
2022-12-05T05:40:37.215Z,3.90
2022-12-05T05:43:05.366Z,3.90
2022-12-05T05:45:33.226Z,3.90
2022-12-05T05:48:00.922Z,3.90
2022-12-05T05:50:29.244Z,3.90
2022-12-05T05:52:56.983Z,4.00
2022-12-05T05:55:24.751Z,4.00
2022-12-05T05:57:52.476Z,4.00
2022-12-05T06:00:20.505Z,4.00
2022-12-05T06:02:48.346Z,4.00
2022-12-05T06:05:16.270Z,4.10
2022-12-05T06:07:44.093Z,4.00
2022-12-05T06:10:11.932Z,4.10
2022-12-05T06:12:39.683Z,4.10
2022-12-05T06:15:08.500Z,4.10
2022-12-05T06:17:36.350Z,4.20
2022-12-05T06:20:06.743Z,4.10
2022-12-05T06:22:34.589Z,4.10
2022-12-05T06:25:02.307Z,4.00
2022-12-05T06:27:31.759Z,4.00
2022-12-05T06:30:00.155Z,4.00
2022-12-05T06:32:30.095Z,4.10
2022-12-05T06:34:57.913Z,4.10
2022-12-05T06:37:25.665Z,4.10
2022-12-05T06:39:53.469Z,4.10
2022-12-05T06:42:22.328Z,4.20
2022-12-05T06:44:50.226Z,4.20
2022-12-05T06:47:17.925Z,4.10
2022-12-05T06:49:45.796Z,4.10
2022-12-05T06:52:13.586Z,4.10
2022-12-05T06:54:41.347Z,4.10
2022-12-05T06:57:09.803Z,4.10
2022-12-05T06:59:37.566Z,4.10
2022-12-05T07:02:08.392Z,4.10
2022-12-05T07:04:36.303Z,4.10
2022-12-05T07:07:04.382Z,4.10
2022-12-05T07:09:51.351Z,4.10
2022-12-05T07:12:19.786Z,4.20
2022-12-05T07:14:49.371Z,4.20
2022-12-05T07:17:19.454Z,4.20
2022-12-05T07:19:52.976Z,4.20
2022-12-05T07:22:23.556Z,4.20
2022-12-05T07:24:54.274Z,4.20
2022-12-05T07:27:27.233Z,4.30
2022-12-05T07:29:56.996Z,4.20
2022-12-05T07:32:25.059Z,4.30
2022-12-05T07:34:55.508Z,4.30
2022-12-05T07:37:24.045Z,4.20
2022-12-05T07:39:53.511Z,4.20
2022-12-05T07:42:21.341Z,4.20
2022-12-05T07:44:49.128Z,4.10
2022-12-05T07:47:17.127Z,4.20
2022-12-05T07:49:44.955Z,4.20
2022-12-05T07:52:12.902Z,4.20
2022-12-05T07:54:40.718Z,4.20
2022-12-05T07:57:08.440Z,4.20
2022-12-05T07:59:36.184Z,4.30
2022-12-05T08:02:04.099Z,4.30
2022-12-05T08:04:31.905Z,4.30
2022-12-05T08:06:59.642Z,4.30
2022-12-05T08:09:27.701Z,4.40
2022-12-05T08:11:55.421Z,4.40
2022-12-05T08:14:23.178Z,4.40
2022-12-05T08:16:50.988Z,4.40
2022-12-05T08:19:19.143Z,4.40
2022-12-05T08:21:47.676Z,4.40
2022-12-05T08:24:15.427Z,4.40
2022-12-05T08:26:43.250Z,4.50
2022-12-05T08:29:14.945Z,4.40
2022-12-05T08:31:47.441Z,4.40
2022-12-05T08:34:17.653Z,4.30
2022-12-05T08:36:46.400Z,4.40
2022-12-05T08:39:17.508Z,4.50
2022-12-05T08:41:47.524Z,4.60
2022-12-05T08:44:17.117Z,4.60
2022-12-05T08:46:48.639Z,4.60
2022-12-05T08:49:17.749Z,4.60
2022-12-05T08:51:45.790Z,4.60
2022-12-05T08:54:13.836Z,4.60
2022-12-05T08:56:41.618Z,4.60
2022-12-05T08:59:09.426Z,4.60
2022-12-05T09:01:39.334Z,4.60
2022-12-05T09:04:08.263Z,4.70
2022-12-05T09:06:36.675Z,4.70
2022-12-05T09:09:08.568Z,4.80
2022-12-05T09:11:41.486Z,4.70
2022-12-05T09:14:09.266Z,4.70
2022-12-05T09:16:39.411Z,4.60
2022-12-05T09:19:23.575Z,4.50
2022-12-05T09:21:51.367Z,4.40
2022-12-05T09:24:19.930Z,4.40
2022-12-05T09:26:47.784Z,4.30
2022-12-05T09:29:17.543Z,4.30
2022-12-05T09:31:51.570Z,4.30
2022-12-05T09:34:20.224Z,4.40
2022-12-05T09:36:55.850Z,4.30
2022-12-05T09:39:26.341Z,4.30
2022-12-05T09:42:05.983Z,4.40
2022-12-05T09:45:03.944Z,4.40
2022-12-05T09:47:49.925Z,4.50
2022-12-05T09:50:33.716Z,4.60
2022-12-05T09:53:33.013Z,4.70
2022-12-05T09:56:09.796Z,4.80
2022-12-05T09:58:52.410Z,4.90
2022-12-05T10:01:40.736Z,5.00
2022-12-05T10:04:48.439Z,5.00
2022-12-05T10:07:44.007Z,5.10
2022-12-05T10:10:26.747Z,5.00
2022-12-05T10:13:20.553Z,5.00
2022-12-05T10:15:57.625Z,5.00
2022-12-05T10:18:46.642Z,5.00
2022-12-05T10:21:53.662Z,5.00
2022-12-05T10:24:37.366Z,5.00
2022-12-05T10:27:10.850Z,5.10
2022-12-05T10:29:53.902Z,5.10
2022-12-05T10:32:36.764Z,5.10
2022-12-05T10:35:21.410Z,5.10
2022-12-05T10:38:00.706Z,5.20
2022-12-05T10:40:37.588Z,5.20
2022-12-05T10:43:08.285Z,5.20
2022-12-05T10:45:48.121Z,5.10
2022-12-05T10:48:19.591Z,5.10
2022-12-05T10:50:55.695Z,5.10
2022-12-05T10:53:49.438Z,5.10
2022-12-05T10:56:45.577Z,5.10
2022-12-05T10:59:26.081Z,5.20
2022-12-05T11:01:58.098Z,5.20
2022-12-05T11:04:45.320Z,5.20
2022-12-05T11:07:36.554Z,5.10
2022-12-05T11:10:44.189Z,5.10
2022-12-05T11:13:25.657Z,5.20
2022-12-05T11:15:55.642Z,5.30
2022-12-05T11:18:31.612Z,5.30
2022-12-05T11:21:14.681Z,5.30
2022-12-05T11:23:42.482Z,5.40
2022-12-05T11:26:37.375Z,5.50
2022-12-05T11:29:25.208Z,5.60
2022-12-05T11:31:53.089Z,5.70
2022-12-05T11:34:27.188Z,5.90
2022-12-05T11:37:07.712Z,6.00
2022-12-05T11:39:35.669Z,6.10
2022-12-05T11:43:00.448Z,6.20
2022-12-05T11:45:52.163Z,6.20
2022-12-05T11:48:34.761Z,6.10
2022-12-05T11:51:39.741Z,6.10
2022-12-05T11:54:13.294Z,6.10
2022-12-05T11:57:12.910Z,6.20
2022-12-05T12:00:26.871Z,6.20
2022-12-05T12:03:33.140Z,6.20
2022-12-05T12:06:25.266Z,6.30
2022-12-05T12:09:17.703Z,6.30
2022-12-05T12:12:42.677Z,6.40
2022-12-05T12:15:40.702Z,6.50
2022-12-05T12:18:08.323Z,6.50
2022-12-05T12:21:03.903Z,6.50
2022-12-05T12:24:14.823Z,6.40
2022-12-05T12:27:08.841Z,6.50
2022-12-05T12:30:15.123Z,6.40
2022-12-05T12:33:27.135Z,6.40
2022-12-05T12:36:10.430Z,6.50
2022-12-05T12:39:26.169Z,6.30
2022-12-05T12:42:13.177Z,6.20
2022-12-05T12:44:46.183Z,6.10
2022-12-05T12:47:29.971Z,6.10
2022-12-05T12:50:20.620Z,6.10
2022-12-05T12:53:32.393Z,6.10
2022-12-05T12:56:36.862Z,6.00
2022-12-05T12:59:33.797Z,6.10
2022-12-05T13:02:18.194Z,6.00
2022-12-05T13:05:04.697Z,6.00
2022-12-05T13:07:56.994Z,5.90
2022-12-05T13:10:41.078Z,5.70
2022-12-05T13:13:22.360Z,5.60
2022-12-05T13:16:00.955Z,5.70
2022-12-05T13:18:28.826Z,5.70
2022-12-05T13:21:03.759Z,5.70
2022-12-05T13:23:34.850Z,5.80
2022-12-05T13:26:10.746Z,5.60
2022-12-05T13:28:49.838Z,5.60
2022-12-05T13:31:19.439Z,5.50
2022-12-05T13:33:50.527Z,5.60
2022-12-05T13:36:39.552Z,5.60
2022-12-05T13:39:32.880Z,5.60
2022-12-05T13:42:16.271Z,5.70
2022-12-05T13:45:10.160Z,5.70
2022-12-05T13:48:01.657Z,5.60
2022-12-05T13:50:54.199Z,5.40
2022-12-05T13:53:47.453Z,5.40
2022-12-05T13:56:15.117Z,5.40
2022-12-05T13:58:53.097Z,5.40
2022-12-05T14:01:27.046Z,5.40
2022-12-05T14:04:02.292Z,5.30
2022-12-05T14:06:38.606Z,5.30
2022-12-05T14:09:28.226Z,5.20
2022-12-05T14:12:12.193Z,5.20
2022-12-05T14:15:04.044Z,5.30
2022-12-05T14:17:41.724Z,5.40
2022-12-05T14:20:24.788Z,5.50
2022-12-05T14:23:18.520Z,5.50
2022-12-05T14:26:07.034Z,5.50
2022-12-05T14:28:45.000Z,5.50
2022-12-05T14:31:47.468Z,5.60
2022-12-05T14:34:24.771Z,5.60
2022-12-05T14:37:15.054Z,5.60
2022-12-05T14:39:58.174Z,5.70
2022-12-05T14:42:44.194Z,5.70
2022-12-05T14:45:30.658Z,5.70
2022-12-05T14:48:27.261Z,5.80
2022-12-05T14:50:57.562Z,5.70
2022-12-05T14:53:37.402Z,5.70
2022-12-05T14:56:19.635Z,5.70
2022-12-05T14:59:05.042Z,5.60
2022-12-05T15:01:49.906Z,5.70
2022-12-05T15:04:28.756Z,5.70
2022-12-05T15:07:09.689Z,5.70
2022-12-05T15:09:41.400Z,5.70
2022-12-05T15:12:20.284Z,5.70
2022-12-05T15:15:19.945Z,5.70
2022-12-05T15:18:16.328Z,5.70
2022-12-05T15:20:59.089Z,5.70
2022-12-05T15:23:54.901Z,5.70
2022-12-05T15:26:47.767Z,5.70
2022-12-05T15:29:20.732Z,5.70
2022-12-05T15:31:52.542Z,5.60
2022-12-05T15:34:44.789Z,5.70
2022-12-05T15:37:17.550Z,5.70
2022-12-05T15:39:57.159Z,5.60
2022-12-05T15:42:30.466Z,5.60
2022-12-05T15:45:15.331Z,5.50
2022-12-05T15:47:54.157Z,5.50
2022-12-05T15:50:38.743Z,5.40
2022-12-05T15:53:18.554Z,5.40
2022-12-05T15:55:53.629Z,5.40
2022-12-05T15:58:42.649Z,5.40
2022-12-05T16:01:19.478Z,5.40
2022-12-05T16:04:18.681Z,5.30
2022-12-05T16:06:54.986Z,5.30
2022-12-05T16:09:27.726Z,5.20
2022-12-05T16:12:03.322Z,5.20
2022-12-05T16:14:59.112Z,5.20
2022-12-05T16:17:24.139Z,5.20
2022-12-05T16:19:52.013Z,5.20
2022-12-05T16:22:25.369Z,5.10
2022-12-05T16:25:15.378Z,5.20
2022-12-05T16:27:44.166Z,5.20
2022-12-05T16:30:22.887Z,5.30
2022-12-05T16:33:15.529Z,5.30
2022-12-05T16:35:45.960Z,5.30
2022-12-05T16:38:31.885Z,5.40
2022-12-05T16:41:03.021Z,5.40
2022-12-05T16:43:33.739Z,5.40
2022-12-05T16:46:13.670Z,5.40
2022-12-05T16:48:44.726Z,5.40
2022-12-05T16:51:28.748Z,5.50
2022-12-05T16:53:56.935Z,5.50
2022-12-05T16:56:32.790Z,5.50
2022-12-05T16:59:11.617Z,5.50
2022-12-05T17:01:39.541Z,5.40
2022-12-05T17:04:11.459Z,5.40
2022-12-05T17:06:39.434Z,5.40
2022-12-05T17:09:07.268Z,5.40
2022-12-05T17:11:37.213Z,5.30
2022-12-05T17:14:05.263Z,5.30
2022-12-05T17:16:33.149Z,5.30
2022-12-05T17:19:00.966Z,5.30
2022-12-05T17:21:32.376Z,5.40
2022-12-05T17:24:01.182Z,5.40
2022-12-05T17:26:28.993Z,5.40
2022-12-05T17:28:56.989Z,5.40
2022-12-05T17:31:26.128Z,5.30
2022-12-05T17:33:54.713Z,5.30
2022-12-05T17:36:22.740Z,5.30
2022-12-05T17:38:50.562Z,5.40
2022-12-05T17:41:22.928Z,5.40
2022-12-05T17:43:51.521Z,5.40
2022-12-05T17:46:23.876Z,5.30
2022-12-05T17:48:52.600Z,5.40
2022-12-05T17:51:21.364Z,5.40
2022-12-05T17:53:49.585Z,5.40
2022-12-05T17:56:17.382Z,5.30
2022-12-05T17:58:46.206Z,5.30
2022-12-05T18:01:20.102Z,5.30
2022-12-05T18:03:48.558Z,5.30
2022-12-05T18:06:17.562Z,5.20
2022-12-05T18:08:45.740Z,5.20
2022-12-05T18:11:14.744Z,5.20
2022-12-05T18:13:42.896Z,5.20
2022-12-05T18:16:10.826Z,5.20
2022-12-05T18:18:39.502Z,5.20
2022-12-05T18:21:12.636Z,5.10
2022-12-05T18:23:41.110Z,5.10
2022-12-05T18:26:10.691Z,5.00
2022-12-05T18:28:39.674Z,5.00
2022-12-05T18:31:16.658Z,4.80
2022-12-05T18:33:46.084Z,4.70
2022-12-05T18:36:19.501Z,4.60
2022-12-05T18:38:55.821Z,4.50
2022-12-05T18:41:26.637Z,4.50
2022-12-05T18:43:54.748Z,4.50
2022-12-05T18:46:22.867Z,4.30
2022-12-05T18:48:50.743Z,4.40
2022-12-05T18:51:23.306Z,4.40
2022-12-05T18:53:53.624Z,4.40
2022-12-05T18:56:40.313Z,4.40
2022-12-05T18:59:15.101Z,4.40
2022-12-05T19:01:43.919Z,4.40
2022-12-05T19:04:14.697Z,4.40
2022-12-05T19:06:48.252Z,4.40
2022-12-05T19:09:18.816Z,4.50
2022-12-05T19:11:50.932Z,4.50
2022-12-05T19:14:19.460Z,4.60
2022-12-05T19:16:56.491Z,4.60
2022-12-05T19:19:28.332Z,4.60
2022-12-05T19:21:56.773Z,4.70
2022-12-05T19:24:24.650Z,4.60
2022-12-05T19:26:52.472Z,4.70
2022-12-05T19:29:20.224Z,4.70
2022-12-05T19:31:48.120Z,4.70
2022-12-05T19:34:15.927Z,4.70
2022-12-05T19:36:45.955Z,4.60
2022-12-05T19:39:27.464Z,4.60
2022-12-05T19:41:57.938Z,4.60
2022-12-05T19:44:26.649Z,4.70
2022-12-05T19:46:55.093Z,4.70
2022-12-05T19:49:23.206Z,4.70
2022-12-05T19:51:50.985Z,4.70
2022-12-05T19:54:19.549Z,4.70
2022-12-05T19:56:47.326Z,4.70
2022-12-05T19:59:18.511Z,4.80
2022-12-05T20:01:46.380Z,4.70
2022-12-05T20:04:16.926Z,4.80
2022-12-05T20:06:48.488Z,4.80
2022-12-05T20:09:20.072Z,4.80
2022-12-05T20:11:55.567Z,4.90
2022-12-05T20:14:25.518Z,4.80
2022-12-05T20:16:54.330Z,4.80
2022-12-05T20:19:23.979Z,4.80
2022-12-05T20:21:51.785Z,4.80
2022-12-05T20:24:19.594Z,4.80
2022-12-05T20:26:47.378Z,4.70
2022-12-05T20:29:15.115Z,4.70
2022-12-05T20:31:43.691Z,4.70
2022-12-05T20:34:15.124Z,4.70
2022-12-05T20:36:43.402Z,4.70
2022-12-05T20:39:15.188Z,4.70
2022-12-05T20:41:43.893Z,4.80
2022-12-05T20:44:15.553Z,4.80
2022-12-05T20:46:43.671Z,4.80
2022-12-05T20:49:14.924Z,4.80
2022-12-05T20:51:45.700Z,4.80
2022-12-05T20:54:18.193Z,4.80
2022-12-05T20:56:46.151Z,4.90
2022-12-05T20:59:14.471Z,4.90
2022-12-05T21:01:42.646Z,4.90
2022-12-05T21:04:12.375Z,4.90
2022-12-05T21:06:42.943Z,4.90
2022-12-05T21:09:16.156Z,4.80
2022-12-05T21:11:44.428Z,4.80
2022-12-05T21:14:12.578Z,4.80
2022-12-05T21:16:40.888Z,4.80
2022-12-05T21:19:08.871Z,4.70
2022-12-05T21:21:37.334Z,4.60
2022-12-05T21:24:06.293Z,4.50
2022-12-05T21:26:35.622Z,4.50
2022-12-05T21:29:06.654Z,4.40
2022-12-05T21:31:38.519Z,4.40
2022-12-05T21:34:20.472Z,4.50
2022-12-05T21:36:49.059Z,4.40
2022-12-05T21:39:16.949Z,4.40
2022-12-05T21:41:44.754Z,4.40
2022-12-05T21:44:14.834Z,4.50
2022-12-05T21:46:42.749Z,4.50
2022-12-05T21:49:11.415Z,4.50
2022-12-05T21:51:39.175Z,4.50
2022-12-05T21:54:07.351Z,4.50
2022-12-05T21:56:35.177Z,4.50
2022-12-05T21:59:02.874Z,4.50
2022-12-05T22:01:30.698Z,4.50
2022-12-05T22:03:59.640Z,4.40
2022-12-05T22:06:30.970Z,4.50
2022-12-05T22:08:58.743Z,4.50
2022-12-05T22:11:26.775Z,4.40
2022-12-05T22:13:54.667Z,4.40
2022-12-05T22:16:25.456Z,4.40
2022-12-05T22:18:56.914Z,4.40
2022-12-05T22:21:24.715Z,4.40
2022-12-05T22:23:52.466Z,4.40
2022-12-05T22:26:23.711Z,4.40
2022-12-05T22:28:56.226Z,4.40
2022-12-05T22:31:24.769Z,4.40
2022-12-05T22:33:52.646Z,4.50
2022-12-05T22:36:20.584Z,4.30
2022-12-05T22:38:48.944Z,4.20
2022-12-05T22:41:21.403Z,4.30
2022-12-05T22:43:53.901Z,4.30
2022-12-05T22:46:22.374Z,4.30
2022-12-05T22:48:50.624Z,4.30
2022-12-05T22:51:21.142Z,4.40
2022-12-05T22:53:54.196Z,4.40
2022-12-05T22:56:24.949Z,4.40
2022-12-05T22:58:58.215Z,4.40
2022-12-05T23:01:29.083Z,4.40
2022-12-05T23:04:06.616Z,4.40
2022-12-05T23:06:36.663Z,4.40
2022-12-05T23:09:08.702Z,4.30
2022-12-05T23:11:36.817Z,4.40
2022-12-05T23:14:06.015Z,4.40
2022-12-05T23:16:34.756Z,4.50
2022-12-05T23:19:05.341Z,4.50
2022-12-05T23:21:37.459Z,4.60
2022-12-05T23:24:09.742Z,4.50
2022-12-05T23:26:42.824Z,4.50
2022-12-05T23:29:12.701Z,4.50
2022-12-05T23:31:41.492Z,4.40
2022-12-05T23:34:10.734Z,4.40
2022-12-05T23:36:38.710Z,4.30
2022-12-05T23:39:06.967Z,4.40
2022-12-05T23:41:34.785Z,4.30
2022-12-05T23:44:03.527Z,4.30
2022-12-05T23:46:31.484Z,4.30
2022-12-05T23:48:59.513Z,4.30
2022-12-05T23:51:29.993Z,4.30
2022-12-05T23:54:01.637Z,4.30
2022-12-05T23:56:33.346Z,4.30
2022-12-05T23:59:04.665Z,4.20
